Skyline Lakes, New Jersey
Current Conditions -  °F | °C
As of 11:53 PM on Sunday 19 Oct 2014 (Local Time) from KCDW Reporting Station
Clear Clear  
Wind Chill: 40°   Ceiling: Unl
Heat Index: 40°   Visibility: 10mi
Dew Point: 27°   Wind: 3mph
Humidity: 60%   Direction: 220°SW
Pressure: 30.08"   Gusts: NA
Location:  41.1036°N, 74.2801°W
Report Text: KCDW 200353Z AUTO 22003KT 10SM CLR 04/M03 A3008 RMK AO2 SLP192 T00441028 TSNO
Loading
Personal Weather Stations






























Interactive Weather Map New forecast layout! Learn more

10-Day Weather Forecast

Advertisements
Track Severe Weather on mobile